الصفحة الرئيسية
METAR-TAF:

METAR-TAF

مطار :

ياوندي, الكاميرون

مطار ياوندي

دائرة عرض: 03-50N, خط طول: 011-31E, ارتفاع: 751 متر

مراقبة الطقس الحالي

تاريخ ووقت الإصدار 1ساعة و 17 دقيقة قبل الساعة 10:00UTC
ريح 3 عقدة من الشمال
درجة الحرارة 27°درجة مئوية
الرطوبة 66%
ضغط 1016 hPa
الرؤية: 4000 متر
غيوم مفككة على ارتفاع 1600 قدم
العجاج

METAR: FKYS 171000Z 01003KT 4000 HZ BKN016 27/20 Q1016 NOSIG

زمن: 12:17 (11:17 UTC)

توقعات

تاريخ ووقت الإصدار 6ساعات و 17 دقيقة قبل الساعة 05:00UTC
التوقعات صالحة من17 الساعة 06 UTC إلى 18 الساعة 06 UTC
ريح 4 عقدة من الغرب
الرؤية: 6000 متر
غيوم مفككة على ارتفاع 600 قدم
مؤقت
من 17 الساعة 06 UTC إلى 17 الساعة 08 UTC
الرؤية: 2000 متر
غشاء
أصبح
من 17 الساعة 08 UTC إلى 17 الساعة 10 UTC
غيوم مفككة على ارتفاع 1600 قدم

TAF: FKYS 170500Z 1706/1806 26004KT 6000 BKN006 TEMPO 1706/1708 2000 BR BECMG 1708/1710 BKN016

أرصاد الطقس والتوقعات من أكثر من 4000 مطار (تقارير الطقس للمطار METAR والتنبؤ بالطقس بالمطارTAF).

المحطات المتاحة هي النقط الصفراء والحمراء على الخريطة.

حرك المؤشر فوق النقطة لمعرفة اسم المحطة.

ثم انقر لمعرفة أرصاد وتوقعات الطقس.

لتغيير الخارطة: اضغط على الأزرار الخضراء مع رمز الصليب الأسود للتكبير. على الزر الأخضر مع شرطة للتصغير، أو على الأسهم الخضراء للخرائط المجاورة.


METAR-TAF: